International Virtual Aviation Organisation

Eastern Europe and Northern Asia MCD

 
USPP 101100Z 05003MPS CAVOK 08/02 Q1030 R03/090060 NOSIG RMK QFE762
QNH:(hPa/inHg/mmHg)1030 / 30.42 / 773
QFE:(hPa/inHg/mmHg)1015 / 29.97 / 761
Temperature8
Dew Point2
Visibility> 10000
WeatherCAVOK
Cloud Cover
Transition Height1200 m./4400 ft.
Transition LevelFL50
SQUAWK